Time,TemperatureF,DewpointF,PressureIn,WindDirection,WindDirectionDegrees,WindSpeedMPH,WindSpeedGustMPH,Humidity,HourlyPrecipIn,Conditions,Clouds,dailyrainin,SoftwareType,DateUTC
2013-04-27 00:05:00,47.7,47.2,30.16,ESE,112,4.7,-999.0,98,-99.99,,,0.00,Acu-Link.com,2013-04-27 05:05:00,
2013-04-27 00:20:00,47.5,47.0,30.15,East,90,5.8,-999.0,98,-99.99,,,0.00,Acu-Link.com,2013-04-27 05:20:00,
2013-04-27 00:35:00,47.5,47.0,30.15,SSE,157,6.3,-999.0,98,-99.99,,,0.01,Acu-Link.com,2013-04-27 05:35:00,
2013-04-27 00:50:00,47.3,46.8,30.15,SE,135,7.8,-999.0,98,-99.99,,,0.01,Acu-Link.com,2013-04-27 05:50:00,
2013-04-27 01:05:00,47.3,46.8,30.15,East,90,6.8,-999.0,98,-99.99,,,0.01,Acu-Link.com,2013-04-27 06:05:00,
2013-04-27 01:20:00,47.5,47.0,30.15,East,90,5.8,-999.0,98,-99.99,,,0.01,Acu-Link.com,2013-04-27 06:20:00,
2013-04-27 01:35:00,47.3,46.8,30.15,SE,135,5.8,-999.0,98,-99.99,,,0.01,Acu-Link.com,2013-04-27 06:35:00,
2013-04-27 01:50:00,47.1,46.6,30.14,ESE,112,5.3,-999.0,98,-99.99,,,0.02,Acu-Link.com,2013-04-27 06:50:00,
2013-04-27 02:06:00,47.3,46.8,30.13,SSE,157,5.8,-999.0,98,-99.99,,,0.03,Acu-Link.com,2013-04-27 07:06:00,
2013-04-27 02:21:00,47.3,46.8,30.12,ENE,67,8.9,-999.0,98,-99.99,,,0.03,Acu-Link.com,2013-04-27 07:21:00,
2013-04-27 02:36:00,47.3,46.8,30.11,East,90,6.8,-999.0,98,-99.99,,,0.05,Acu-Link.com,2013-04-27 07:36:00,
2013-04-27 02:51:00,47.3,46.8,30.10,East,90,5.8,-999.0,98,-99.99,,,0.06,Acu-Link.com,2013-04-27 07:51:00,
2013-04-27 03:06:00,47.1,46.6,30.10,ESE,112,5.8,-999.0,98,-99.99,,,0.08,Acu-Link.com,2013-04-27 08:06:00,
2013-04-27 03:21:00,47.1,46.6,30.09,East,90,5.8,-999.0,98,-99.99,,,0.11,Acu-Link.com,2013-04-27 08:21:00,
2013-04-27 03:37:00,47.1,46.6,30.08,East,90,6.3,-999.0,98,-99.99,,,0.13,Acu-Link.com,2013-04-27 08:37:00,
2013-04-27 03:52:00,47.1,46.6,30.09,East,90,4.2,-999.0,98,-99.99,,,0.13,Acu-Link.com,2013-04-27 08:52:00,
2013-04-27 04:07:00,46.9,46.4,30.08,East,90,6.8,-999.0,98,-99.99,,,0.15,Acu-Link.com,2013-04-27 09:07:00,
2013-04-27 04:22:00,47.1,46.6,30.07,East,90,5.8,-999.0,98,-99.99,,,0.21,Acu-Link.com,2013-04-27 09:22:00,
2013-04-27 04:37:00,46.9,46.4,30.08,East,90,7.3,-999.0,98,-99.99,,,0.27,Acu-Link.com,2013-04-27 09:37:00,
2013-04-27 04:52:00,46.9,46.4,30.07,ESE,112,6.3,-999.0,98,-99.99,,,0.38,Acu-Link.com,2013-04-27 09:52:00,
2013-04-27 05:07:00,46.9,46.4,30.07,SE,135,4.7,-999.0,98,-99.99,,,0.43,Acu-Link.com,2013-04-27 10:07:00,
2013-04-27 05:22:00,46.9,46.4,30.06,ESE,112,6.3,-999.0,98,-99.99,,,0.47,Acu-Link.com,2013-04-27 10:22:00,
2013-04-27 05:37:00,46.9,46.4,30.06,East,90,7.3,-999.0,98,-99.99,,,0.56,Acu-Link.com,2013-04-27 10:37:00,
2013-04-27 05:53:00,47.1,46.6,30.06,ESE,112,5.8,-999.0,98,-99.99,,,0.59,Acu-Link.com,2013-04-27 10:53:00,
2013-04-27 06:08:00,47.1,46.6,30.06,East,90,4.7,-999.0,98,-99.99,,,0.60,Acu-Link.com,2013-04-27 11:08:00,
2013-04-27 06:23:00,47.1,46.6,30.06,ESE,112,6.8,-999.0,98,-99.99,,,0.60,Acu-Link.com,2013-04-27 11:23:00,
2013-04-27 06:38:00,47.1,46.6,30.07,ENE,67,3.7,-999.0,98,-99.99,,,0.61,Acu-Link.com,2013-04-27 11:38:00,
2013-04-27 06:53:00,47.1,46.6,30.06,ENE,67,4.7,-999.0,98,-99.99,,,0.65,Acu-Link.com,2013-04-27 11:53:00,
2013-04-27 07:08:00,47.3,46.8,30.06,NE,45,5.3,-999.0,98,-99.99,,,0.66,Acu-Link.com,2013-04-27 12:08:00,
2013-04-27 07:23:00,47.5,47.0,30.06,NE,45,7.3,-999.0,98,-99.99,,,0.66,Acu-Link.com,2013-04-27 12:23:00,
2013-04-27 07:38:00,47.3,46.8,30.06,NE,45,6.8,-999.0,98,-99.99,,,0.66,Acu-Link.com,2013-04-27 12:38:00,
2013-04-27 07:53:00,47.5,47.0,30.06,NNE,22,5.8,-999.0,98,-99.99,,,0.66,Acu-Link.com,2013-04-27 12:53:00,
2013-04-27 08:09:00,47.7,47.2,30.06,East,90,6.3,-999.0,98,-99.99,,,0.67,Acu-Link.com,2013-04-27 13:09:00,
2013-04-27 08:24:00,47.8,47.3,30.06,NE,45,5.8,-999.0,98,-99.99,,,0.67,Acu-Link.com,2013-04-27 13:24:00,
2013-04-27 08:39:00,48.0,47.5,30.05,NE,45,7.8,-999.0,98,-99.99,,,0.67,Acu-Link.com,2013-04-27 13:39:00,
2013-04-27 08:54:00,48.2,47.7,30.06,ENE,67,7.3,-999.0,98,-99.99,,,0.67,Acu-Link.com,2013-04-27 13:54:00,
2013-04-27 09:09:00,48.4,47.9,30.06,ENE,67,8.3,-999.0,98,-99.99,,,0.67,Acu-Link.com,2013-04-27 14:09:00,
2013-04-27 09:24:00,48.7,48.2,30.05,ENE,67,5.8,-999.0,98,-99.99,,,0.67,Acu-Link.com,2013-04-27 14:24:00,
2013-04-27 09:39:00,48.9,48.4,30.05,ENE,67,4.7,-999.0,98,-99.99,,,0.67,Acu-Link.com,2013-04-27 14:39:00,
2013-04-27 09:54:00,48.7,48.2,30.05,ENE,67,6.3,-999.0,98,-99.99,,,0.67,Acu-Link.com,2013-04-27 14:54:00,
2013-04-27 10:10:00,49.1,48.6,30.05,ENE,67,5.3,-999.0,98,-99.99,,,0.67,Acu-Link.com,2013-04-27 15:10:00,
2013-04-27 10:25:00,49.1,48.6,30.05,ENE,67,5.8,-999.0,98,-99.99,,,0.67,Acu-Link.com,2013-04-27 15:25:00,
2013-04-27 10:40:00,49.5,49.0,30.05,ESE,112,8.3,-999.0,98,-99.99,,,0.67,Acu-Link.com,2013-04-27 15:40:00,
2013-04-27 10:55:00,50.2,49.7,30.04,NE,45,8.3,-999.0,98,-99.99,,,0.68,Acu-Link.com,2013-04-27 15:55:00,
2013-04-27 11:10:00,50.4,49.9,30.04,NE,45,10.9,-999.0,98,-99.99,,,0.68,Acu-Link.com,2013-04-27 16:10:00,
2013-04-27 11:25:00,50.4,49.9,30.05,NE,45,6.8,-999.0,98,-99.99,,,0.68,Acu-Link.com,2013-04-27 16:25:00,
2013-04-27 11:40:00,50.5,50.0,30.04,East,90,6.3,-999.0,98,-99.99,,,0.68,Acu-Link.com,2013-04-27 16:40:00,
2013-04-27 11:55:00,50.7,50.2,30.04,NE,45,6.8,-999.0,98,-99.99,,,0.68,Acu-Link.com,2013-04-27 16:55:00,
2013-04-27 12:10:00,50.5,50.0,30.04,ENE,67,7.3,-999.0,98,-99.99,,,0.68,Acu-Link.com,2013-04-27 17:10:00,
2013-04-27 12:26:00,50.7,50.2,30.03,ENE,67,7.8,-999.0,98,-99.99,,,0.68,Acu-Link.com,2013-04-27 17:26:00,
2013-04-27 12:41:00,50.7,50.2,30.03,ENE,67,5.3,-999.0,98,-99.99,,,0.68,Acu-Link.com,2013-04-27 17:41:00,
2013-04-27 12:56:00,50.9,50.4,30.03,ENE,67,6.8,-999.0,98,-99.99,,,0.68,Acu-Link.com,2013-04-27 17:56:00,
2013-04-27 13:11:00,50.7,50.2,30.02,ENE,67,6.8,-999.0,98,-99.99,,,0.68,Acu-Link.com,2013-04-27 18:11:00,
2013-04-27 13:26:00,50.7,50.2,30.02,ESE,112,4.7,-999.0,98,-99.99,,,0.68,Acu-Link.com,2013-04-27 18:26:00,
2013-04-27 13:41:00,50.7,50.2,30.01,NE,45,5.8,-999.0,98,-99.99,,,0.68,Acu-Link.com,2013-04-27 18:41:00,
2013-04-27 13:56:00,50.9,50.4,30.01,ENE,67,5.8,-999.0,98,-99.99,,,0.68,Acu-Link.com,2013-04-27 18:56:00,
2013-04-27 14:11:00,50.9,50.4,30.01,NE,45,5.3,-999.0,98,-99.99,,,0.68,Acu-Link.com,2013-04-27 19:11:00,
2013-04-27 14:26:00,50.9,50.4,30.01,NE,45,6.8,-999.0,98,-99.99,,,0.68,Acu-Link.com,2013-04-27 19:26:00,
2013-04-27 14:42:00,50.9,50.4,30.01,ENE,67,5.8,-999.0,98,-99.99,,,0.68,Acu-Link.com,2013-04-27 19:42:00,
2013-04-27 14:57:00,51.3,50.8,30.00,NE,45,6.3,-999.0,98,-99.99,,,0.68,Acu-Link.com,2013-04-27 19:57:00,
2013-04-27 15:12:00,51.3,50.8,29.99,NE,45,4.2,-999.0,98,-99.99,,,0.68,Acu-Link.com,2013-04-27 20:12:00,
2013-04-27 15:27:00,51.6,51.1,29.99,NE,45,7.3,-999.0,98,-99.99,,,0.68,Acu-Link.com,2013-04-27 20:27:00,
2013-04-27 15:42:00,51.4,50.9,29.98,NE,45,4.7,-999.0,98,-99.99,,,0.68,Acu-Link.com,2013-04-27 20:42:00,
2013-04-27 15:57:00,51.6,51.1,29.98,NE,45,5.8,-999.0,98,-99.99,,,0.68,Acu-Link.com,2013-04-27 20:57:00,
2013-04-27 16:12:00,52.2,51.7,29.98,NE,45,6.3,-999.0,98,-99.99,,,0.68,Acu-Link.com,2013-04-27 21:12:00,
2013-04-27 16:27:00,52.5,52.0,29.98,NE,45,6.3,-999.0,98,-99.99,,,0.68,Acu-Link.com,2013-04-27 21:27:00,
2013-04-27 16:42:00,52.2,51.7,29.97,NNE,22,4.2,-999.0,98,-99.99,,,0.68,Acu-Link.com,2013-04-27 21:42:00,
2013-04-27 16:58:00,52.3,51.8,29.97,NNE,22,6.3,-999.0,98,-99.99,,,0.68,Acu-Link.com,2013-04-27 21:58:00,
2013-04-27 17:13:00,53.4,52.3,29.96,NE,45,4.7,-999.0,96,-99.99,,,0.68,Acu-Link.com,2013-04-27 22:13:00,
2013-04-27 17:28:00,53.1,52.3,29.96,NNE,22,6.3,-999.0,97,-99.99,,,0.68,Acu-Link.com,2013-04-27 22:28:00,
2013-04-27 17:43:00,53.2,52.4,29.95,NE,45,7.3,-999.0,97,-99.99,,,0.68,Acu-Link.com,2013-04-27 22:43:00,
2013-04-27 17:58:00,53.1,52.0,29.95,NE,45,6.3,-999.0,96,-99.99,,,0.68,Acu-Link.com,2013-04-27 22:58:00,
2013-04-27 18:13:00,52.5,52.0,29.95,NE,45,5.3,-999.0,98,-99.99,,,0.68,Acu-Link.com,2013-04-27 23:13:00,
2013-04-27 18:28:00,52.3,51.8,29.95,NE,45,4.2,-999.0,98,-99.99,,,0.68,Acu-Link.com,2013-04-27 23:28:00,
2013-04-27 18:43:00,52.2,51.7,29.95,NNW,337,3.2,-999.0,98,-99.99,,,0.68,Acu-Link.com,2013-04-27 23:43:00,
2013-04-27 18:58:00,52.0,51.5,29.95,NNE,22,3.2,-999.0,98,-99.99,,,0.68,Acu-Link.com,2013-04-27 23:58:00,
2013-04-27 19:14:00,52.0,51.5,29.95,NNE,22,3.2,-999.0,98,-99.99,,,0.68,Acu-Link.com,2013-04-28 00:14:00,
2013-04-27 19:29:00,52.0,51.5,29.94,NNE,22,0.0,-999.0,98,-99.99,,,0.68,Acu-Link.com,2013-04-28 00:29:00,
2013-04-27 19:44:00,52.0,51.5,29.95,East,90,0.0,-999.0,98,-99.99,,,0.68,Acu-Link.com,2013-04-28 00:44:00,
2013-04-27 19:59:00,51.8,51.3,29.95,East,90,0.0,-999.0,98,-99.99,,,0.68,Acu-Link.com,2013-04-28 00:59:00,
2013-04-27 20:14:00,51.4,50.9,29.94,East,90,0.0,-999.0,98,-99.99,,,0.68,Acu-Link.com,2013-04-28 01:14:00,
2013-04-27 20:29:00,51.3,50.8,29.94,ENE,67,0.0,-999.0,98,-99.99,,,0.68,Acu-Link.com,2013-04-28 01:29:00,
2013-04-27 20:44:00,51.3,50.8,29.94,NE,45,0.0,-999.0,98,-99.99,,,0.68,Acu-Link.com,2013-04-28 01:44:00,
2013-04-27 20:59:00,51.3,50.8,29.94,ENE,67,0.0,-999.0,98,-99.99,,,0.68,Acu-Link.com,2013-04-28 01:59:00,
2013-04-27 21:14:00,51.1,50.6,29.94,West,270,0.0,-999.0,98,-99.99,,,0.68,Acu-Link.com,2013-04-28 02:14:00,
2013-04-27 21:30:00,51.1,50.6,29.94,NNW,337,0.0,-999.0,98,-99.99,,,0.68,Acu-Link.com,2013-04-28 02:30:00,
2013-04-27 21:45:00,50.9,50.4,29.94,SSE,157,0.0,-999.0,98,-99.99,,,0.68,Acu-Link.com,2013-04-28 02:45:00,
2013-04-27 22:00:00,50.4,49.9,29.94,SSW,202,0.0,-999.0,98,-99.99,,,0.68,Acu-Link.com,2013-04-28 03:00:00,
2013-04-27 22:15:00,50.0,49.5,29.94,West,270,0.0,-999.0,98,-99.99,,,0.68,Acu-Link.com,2013-04-28 03:15:00,
2013-04-27 22:30:00,49.6,49.1,29.94,SW,225,0.0,-999.0,98,-99.99,,,0.68,Acu-Link.com,2013-04-28 03:30:00,
2013-04-27 22:45:00,49.8,49.3,29.94,WNW,292,0.0,-999.0,98,-99.99,,,0.68,Acu-Link.com,2013-04-28 03:45:00,
2013-04-27 23:00:00,49.6,49.1,29.93,SSW,202,0.0,-999.0,98,-99.99,,,0.68,Acu-Link.com,2013-04-28 04:00:00,
2013-04-27 23:15:00,49.1,48.6,29.94,South,180,0.0,-999.0,98,-99.99,,,0.68,Acu-Link.com,2013-04-28 04:15:00,
2013-04-27 23:30:00,48.2,47.7,29.92,South,180,1.7,-999.0,98,-99.99,,,0.68,Acu-Link.com,2013-04-28 04:30:00,
2013-04-27 23:46:00,47.3,46.8,29.92,SSE,157,0.0,-999.0,98,-99.99,,,0.68,Acu-Link.com,2013-04-28 04:46:00,